sensor_id;sensor_type;location;lat;lon;timestamp;temperature;humidity
56729;DHT22;42612;52.232;7.560;2023-05-24T00:01:12;15.50;47.50
56729;DHT22;42612;52.232;7.560;2023-05-24T00:03:38;15.50;47.10
56729;DHT22;42612;52.232;7.560;2023-05-24T00:06:04;15.50;47.20
56729;DHT22;42612;52.232;7.560;2023-05-24T00:08:34;15.40;47.30
56729;DHT22;42612;52.232;7.560;2023-05-24T00:11:00;15.40;47.40
56729;DHT22;42612;52.232;7.560;2023-05-24T00:13:26;15.40;47.50
56729;DHT22;42612;52.232;7.560;2023-05-24T00:15:52;15.40;47.60
56729;DHT22;42612;52.232;7.560;2023-05-24T00:18:18;15.40;47.60
56729;DHT22;42612;52.232;7.560;2023-05-24T00:20:43;15.40;47.70
56729;DHT22;42612;52.232;7.560;2023-05-24T00:23:10;15.40;47.80
56729;DHT22;42612;52.232;7.560;2023-05-24T00:25:35;15.30;47.80
56729;DHT22;42612;52.232;7.560;2023-05-24T00:28:01;15.40;47.80
56729;DHT22;42612;52.232;7.560;2023-05-24T00:30:27;15.30;47.90
56729;DHT22;42612;52.232;7.560;2023-05-24T00:32:52;15.30;47.90
56729;DHT22;42612;52.232;7.560;2023-05-24T00:35:18;15.40;48.00
56729;DHT22;42612;52.232;7.560;2023-05-24T00:37:44;15.30;48.00
56729;DHT22;42612;52.232;7.560;2023-05-24T00:40:11;15.30;48.10
56729;DHT22;42612;52.232;7.560;2023-05-24T00:42:37;15.30;48.10
56729;DHT22;42612;52.232;7.560;2023-05-24T00:45:03;15.30;48.10
56729;DHT22;42612;52.232;7.560;2023-05-24T00:47:29;15.30;48.20
56729;DHT22;42612;52.232;7.560;2023-05-24T00:49:56;15.20;48.20
56729;DHT22;42612;52.232;7.560;2023-05-24T00:52:21;15.20;48.30
56729;DHT22;42612;52.232;7.560;2023-05-24T00:54:47;15.20;48.30
56729;DHT22;42612;52.232;7.560;2023-05-24T00:57:13;15.20;48.30
56729;DHT22;42612;52.232;7.560;2023-05-24T00:59:39;15.10;48.30
56729;DHT22;42612;52.232;7.560;2023-05-24T01:02:05;15.10;48.40
56729;DHT22;42612;52.232;7.560;2023-05-24T01:04:31;15.10;48.40
56729;DHT22;42612;52.232;7.560;2023-05-24T01:07:21;15.00;48.40
56729;DHT22;42612;52.232;7.560;2023-05-24T01:10:20;15.00;49.10
56729;DHT22;42612;52.232;7.560;2023-05-24T01:16:00;14.90;48.70
56729;DHT22;42612;52.232;7.560;2023-05-24T01:18:56;14.90;48.80
56729;DHT22;42612;52.232;7.560;2023-05-24T01:21:37;14.90;49.30
56729;DHT22;42612;52.232;7.560;2023-05-24T01:24:25;14.80;49.00
56729;DHT22;42612;52.232;7.560;2023-05-24T01:27:03;14.80;49.00
56729;DHT22;42612;52.232;7.560;2023-05-24T01:29:33;14.80;49.00
56729;DHT22;42612;52.232;7.560;2023-05-24T01:32:01;14.80;49.00
56729;DHT22;42612;52.232;7.560;2023-05-24T01:34:27;14.70;49.00
56729;DHT22;42612;52.232;7.560;2023-05-24T01:36:54;14.70;49.10
56729;DHT22;42612;52.232;7.560;2023-05-24T01:39:20;14.70;49.10
56729;DHT22;42612;52.232;7.560;2023-05-24T01:44:49;14.70;49.70
56729;DHT22;42612;52.232;7.560;2023-05-24T01:47:44;14.70;49.40
56729;DHT22;42612;52.232;7.560;2023-05-24T01:50:34;14.70;49.90
56729;DHT22;42612;52.232;7.560;2023-05-24T01:53:05;14.70;49.50
56729;DHT22;42612;52.232;7.560;2023-05-24T01:55:32;14.70;49.40
56729;DHT22;42612;52.232;7.560;2023-05-24T01:58:02;14.70;49.30
56729;DHT22;42612;52.232;7.560;2023-05-24T02:00:30;14.60;49.30
56729;DHT22;42612;52.232;7.560;2023-05-24T02:02:57;14.60;49.30
56729;DHT22;42612;52.232;7.560;2023-05-24T02:05:23;14.60;49.20
56729;DHT22;42612;52.232;7.560;2023-05-24T02:07:49;14.60;49.20
56729;DHT22;42612;52.232;7.560;2023-05-24T02:10:15;14.60;49.30
56729;DHT22;42612;52.232;7.560;2023-05-24T02:12:41;14.60;49.40
56729;DHT22;42612;52.232;7.560;2023-05-24T02:15:07;14.60;49.50
56729;DHT22;42612;52.232;7.560;2023-05-24T02:17:34;14.50;49.50
56729;DHT22;42612;52.232;7.560;2023-05-24T02:20:00;14.60;50.00
56729;DHT22;42612;52.232;7.560;2023-05-24T02:22:26;14.50;49.40
56729;DHT22;42612;52.232;7.560;2023-05-24T02:24:53;14.50;49.60
56729;DHT22;42612;52.232;7.560;2023-05-24T02:27:19;14.50;49.80
56729;DHT22;42612;52.232;7.560;2023-05-24T02:29:44;14.40;49.80
56729;DHT22;42612;52.232;7.560;2023-05-24T02:32:12;14.40;49.90
56729;DHT22;42612;52.232;7.560;2023-05-24T02:34:38;14.40;50.00
56729;DHT22;42612;52.232;7.560;2023-05-24T02:37:04;14.40;50.10
56729;DHT22;42612;52.232;7.560;2023-05-24T02:39:30;14.40;50.10
56729;DHT22;42612;52.232;7.560;2023-05-24T02:41:56;14.40;50.10
56729;DHT22;42612;52.232;7.560;2023-05-24T02:44:22;14.40;50.20
56729;DHT22;42612;52.232;7.560;2023-05-24T02:46:48;14.40;50.20
56729;DHT22;42612;52.232;7.560;2023-05-24T02:49:13;14.40;50.30
56729;DHT22;42612;52.232;7.560;2023-05-24T02:51:39;14.30;50.30
56729;DHT22;42612;52.232;7.560;2023-05-24T02:54:05;14.30;50.40
56729;DHT22;42612;52.232;7.560;2023-05-24T02:56:31;14.30;50.40
56729;DHT22;42612;52.232;7.560;2023-05-24T02:58:57;14.30;50.50
56729;DHT22;42612;52.232;7.560;2023-05-24T03:01:23;14.30;50.60
56729;DHT22;42612;52.232;7.560;2023-05-24T03:03:48;14.30;50.70
56729;DHT22;42612;52.232;7.560;2023-05-24T03:06:14;14.30;50.80
56729;DHT22;42612;52.232;7.560;2023-05-24T03:08:40;14.30;50.80
56729;DHT22;42612;52.232;7.560;2023-05-24T03:11:06;14.30;50.90
56729;DHT22;42612;52.232;7.560;2023-05-24T03:13:32;14.30;51.00
56729;DHT22;42612;52.232;7.560;2023-05-24T03:15:58;14.30;51.70
56729;DHT22;42612;52.232;7.560;2023-05-24T03:18:23;14.30;51.10
56729;DHT22;42612;52.232;7.560;2023-05-24T03:20:49;14.20;51.10
56729;DHT22;42612;52.232;7.560;2023-05-24T03:23:15;14.30;51.20
56729;DHT22;42612;52.232;7.560;2023-05-24T03:25:41;14.20;51.30
56729;DHT22;42612;52.232;7.560;2023-05-24T03:28:06;14.20;51.50
56729;DHT22;42612;52.232;7.560;2023-05-24T03:30:33;14.20;51.60
56729;DHT22;42612;52.232;7.560;2023-05-24T03:32:59;14.10;51.70
56729;DHT22;42612;52.232;7.560;2023-05-24T03:35:24;14.10;51.90
56729;DHT22;42612;52.232;7.560;2023-05-24T03:37:51;14.10;52.00
56729;DHT22;42612;52.232;7.560;2023-05-24T03:40:17;14.10;52.00
56729;DHT22;42612;52.232;7.560;2023-05-24T03:42:43;14.10;52.10
56729;DHT22;42612;52.232;7.560;2023-05-24T03:45:09;14.10;52.10
56729;DHT22;42612;52.232;7.560;2023-05-24T03:47:35;14.10;52.20
56729;DHT22;42612;52.232;7.560;2023-05-24T03:50:01;14.20;52.40
56729;DHT22;42612;52.232;7.560;2023-05-24T03:52:26;14.20;52.40
56729;DHT22;42612;52.232;7.560;2023-05-24T03:54:52;14.20;52.50
56729;DHT22;42612;52.232;7.560;2023-05-24T03:57:18;14.20;52.60
56729;DHT22;42612;52.232;7.560;2023-05-24T03:59:43;14.20;52.60
56729;DHT22;42612;52.232;7.560;2023-05-24T04:02:09;14.20;52.60
56729;DHT22;42612;52.232;7.560;2023-05-24T04:04:35;14.20;52.70
56729;DHT22;42612;52.232;7.560;2023-05-24T04:07:01;14.20;52.70
56729;DHT22;42612;52.232;7.560;2023-05-24T04:09:27;14.30;52.80
56729;DHT22;42612;52.232;7.560;2023-05-24T04:11:53;14.30;52.80
56729;DHT22;42612;52.232;7.560;2023-05-24T04:14:19;14.30;52.80
56729;DHT22;42612;52.232;7.560;2023-05-24T04:16:44;14.30;52.90
56729;DHT22;42612;52.232;7.560;2023-05-24T04:19:11;14.30;52.90
56729;DHT22;42612;52.232;7.560;2023-05-24T04:21:37;14.30;52.90
56729;DHT22;42612;52.232;7.560;2023-05-24T04:24:05;14.30;52.90
56729;DHT22;42612;52.232;7.560;2023-05-24T04:26:33;14.40;53.10
56729;DHT22;42612;52.232;7.560;2023-05-24T04:28:59;14.40;52.80
56729;DHT22;42612;52.232;7.560;2023-05-24T04:31:26;14.30;52.80
56729;DHT22;42612;52.232;7.560;2023-05-24T04:33:53;14.30;52.90
56729;DHT22;42612;52.232;7.560;2023-05-24T04:36:20;14.30;53.40
56729;DHT22;42612;52.232;7.560;2023-05-24T04:38:47;14.40;52.70
56729;DHT22;42612;52.232;7.560;2023-05-24T04:41:12;14.30;52.80
56729;DHT22;42612;52.232;7.560;2023-05-24T04:43:38;14.30;53.00
56729;DHT22;42612;52.232;7.560;2023-05-24T04:46:04;14.30;53.10
56729;DHT22;42612;52.232;7.560;2023-05-24T04:48:30;14.30;53.20
56729;DHT22;42612;52.232;7.560;2023-05-24T04:50:56;14.30;53.40
56729;DHT22;42612;52.232;7.560;2023-05-24T04:53:23;14.40;53.60
56729;DHT22;42612;52.232;7.560;2023-05-24T04:55:50;14.40;53.70
56729;DHT22;42612;52.232;7.560;2023-05-24T04:58:16;14.40;53.80
56729;DHT22;42612;52.232;7.560;2023-05-24T05:00:43;14.50;53.90
56729;DHT22;42612;52.232;7.560;2023-05-24T05:03:09;14.50;53.90
56729;DHT22;42612;52.232;7.560;2023-05-24T05:05:35;14.60;54.00
56729;DHT22;42612;52.232;7.560;2023-05-24T05:08:02;14.60;53.90
56729;DHT22;42612;52.232;7.560;2023-05-24T05:10:28;14.60;54.10
56729;DHT22;42612;52.232;7.560;2023-05-24T05:12:54;14.70;54.00
56729;DHT22;42612;52.232;7.560;2023-05-24T05:15:21;14.70;53.90
56729;DHT22;42612;52.232;7.560;2023-05-24T05:17:48;14.70;54.10
56729;DHT22;42612;52.232;7.560;2023-05-24T05:20:14;14.80;54.10
56729;DHT22;42612;52.232;7.560;2023-05-24T05:22:47;14.80;54.20
56729;DHT22;42612;52.232;7.560;2023-05-24T05:25:14;14.90;54.50
56729;DHT22;42612;52.232;7.560;2023-05-24T05:27:40;14.90;54.10
56729;DHT22;42612;52.232;7.560;2023-05-24T05:30:07;14.90;54.00
56729;DHT22;42612;52.232;7.560;2023-05-24T05:32:33;15.00;54.80
56729;DHT22;42612;52.232;7.560;2023-05-24T05:35:01;15.00;54.10
56729;DHT22;42612;52.232;7.560;2023-05-24T05:37:26;15.10;54.00
56729;DHT22;42612;52.232;7.560;2023-05-24T05:39:52;15.10;53.80
56729;DHT22;42612;52.232;7.560;2023-05-24T05:42:18;15.20;53.90
56729;DHT22;42612;52.232;7.560;2023-05-24T05:44:43;15.20;53.80
56729;DHT22;42612;52.232;7.560;2023-05-24T05:47:09;15.20;53.80
56729;DHT22;42612;52.232;7.560;2023-05-24T05:49:35;15.30;53.80
56729;DHT22;42612;52.232;7.560;2023-05-24T05:52:02;15.30;53.80
56729;DHT22;42612;52.232;7.560;2023-05-24T05:54:28;15.30;53.80
56729;DHT22;42612;52.232;7.560;2023-05-24T05:56:55;15.40;54.20
56729;DHT22;42612;52.232;7.560;2023-05-24T05:59:21;15.40;53.60
56729;DHT22;42612;52.232;7.560;2023-05-24T06:01:47;15.40;53.60
56729;DHT22;42612;52.232;7.560;2023-05-24T06:04:14;15.40;53.60
56729;DHT22;42612;52.232;7.560;2023-05-24T06:06:40;15.40;53.80
56729;DHT22;42612;52.232;7.560;2023-05-24T06:09:06;15.40;53.70
56729;DHT22;42612;52.232;7.560;2023-05-24T06:11:33;15.50;53.70
56729;DHT22;42612;52.232;7.560;2023-05-24T06:13:58;15.50;53.70
56729;DHT22;42612;52.232;7.560;2023-05-24T06:16:24;15.60;53.80
56729;DHT22;42612;52.232;7.560;2023-05-24T06:18:50;15.60;53.80
56729;DHT22;42612;52.232;7.560;2023-05-24T06:21:16;15.60;53.70
56729;DHT22;42612;52.232;7.560;2023-05-24T06:23:42;15.60;53.50
56729;DHT22;42612;52.232;7.560;2023-05-24T06:26:08;15.70;53.60
56729;DHT22;42612;52.232;7.560;2023-05-24T06:28:35;15.70;53.60
56729;DHT22;42612;52.232;7.560;2023-05-24T06:31:04;15.70;53.50
56729;DHT22;42612;52.232;7.560;2023-05-24T06:33:30;15.80;53.50
56729;DHT22;42612;52.232;7.560;2023-05-24T06:35:59;15.80;53.50
56729;DHT22;42612;52.232;7.560;2023-05-24T06:38:24;15.80;53.50
56729;DHT22;42612;52.232;7.560;2023-05-24T06:40:52;15.80;53.50
56729;DHT22;42612;52.232;7.560;2023-05-24T06:43:19;15.80;53.40
56729;DHT22;42612;52.232;7.560;2023-05-24T06:45:45;15.90;53.40
56729;DHT22;42612;52.232;7.560;2023-05-24T06:48:11;15.90;53.30
56729;DHT22;42612;52.232;7.560;2023-05-24T06:50:36;16.00;53.40
56729;DHT22;42612;52.232;7.560;2023-05-24T06:53:02;16.00;53.40
56729;DHT22;42612;52.232;7.560;2023-05-24T06:55:28;16.00;53.40
56729;DHT22;42612;52.232;7.560;2023-05-24T06:57:54;16.10;53.40
56729;DHT22;42612;52.232;7.560;2023-05-24T07:00:20;16.10;53.50
56729;DHT22;42612;52.232;7.560;2023-05-24T07:02:46;16.10;53.50
56729;DHT22;42612;52.232;7.560;2023-05-24T07:05:12;16.10;53.20
56729;DHT22;42612;52.232;7.560;2023-05-24T07:07:39;16.20;53.20
56729;DHT22;42612;52.232;7.560;2023-05-24T07:10:07;16.20;53.30
56729;DHT22;42612;52.232;7.560;2023-05-24T07:12:33;16.30;53.30
56729;DHT22;42612;52.232;7.560;2023-05-24T07:14:59;16.30;53.00
56729;DHT22;42612;52.232;7.560;2023-05-24T07:17:25;16.40;53.10
56729;DHT22;42612;52.232;7.560;2023-05-24T07:19:50;16.40;52.90
56729;DHT22;42612;52.232;7.560;2023-05-24T07:22:16;16.40;52.90
56729;DHT22;42612;52.232;7.560;2023-05-24T07:24:42;16.40;52.90
56729;DHT22;42612;52.232;7.560;2023-05-24T07:27:08;16.40;53.00
56729;DHT22;42612;52.232;7.560;2023-05-24T07:29:34;16.50;52.90
56729;DHT22;42612;52.232;7.560;2023-05-24T07:32:00;16.50;53.00
56729;DHT22;42612;52.232;7.560;2023-05-24T07:34:26;16.50;52.80
56729;DHT22;42612;52.232;7.560;2023-05-24T07:36:52;16.50;52.90
56729;DHT22;42612;52.232;7.560;2023-05-24T07:39:18;16.60;52.90
56729;DHT22;42612;52.232;7.560;2023-05-24T07:41:44;16.60;52.80
56729;DHT22;42612;52.232;7.560;2023-05-24T07:44:10;16.60;52.90
56729;DHT22;42612;52.232;7.560;2023-05-24T07:46:37;16.60;52.90
56729;DHT22;42612;52.232;7.560;2023-05-24T07:49:03;16.70;52.80
56729;DHT22;42612;52.232;7.560;2023-05-24T07:51:29;16.70;52.70
56729;DHT22;42612;52.232;7.560;2023-05-24T07:53:57;16.70;52.50
56729;DHT22;42612;52.232;7.560;2023-05-24T07:56:22;16.70;52.40
56729;DHT22;42612;52.232;7.560;2023-05-24T07:58:49;16.70;52.20
56729;DHT22;42612;52.232;7.560;2023-05-24T08:01:16;16.70;52.10
56729;DHT22;42612;52.232;7.560;2023-05-24T08:03:45;16.80;51.90
56729;DHT22;42612;52.232;7.560;2023-05-24T08:06:11;16.80;51.90
56729;DHT22;42612;52.232;7.560;2023-05-24T08:08:38;16.80;51.80
56729;DHT22;42612;52.232;7.560;2023-05-24T08:11:05;16.80;51.60
56729;DHT22;42612;52.232;7.560;2023-05-24T08:13:32;16.80;51.80
56729;DHT22;42612;52.232;7.560;2023-05-24T08:15:58;16.90;51.90
56729;DHT22;42612;52.232;7.560;2023-05-24T08:18:24;16.90;51.80
56729;DHT22;42612;52.232;7.560;2023-05-24T08:20:50;17.00;51.70
56729;DHT22;42612;52.232;7.560;2023-05-24T08:23:16;17.00;51.60
56729;DHT22;42612;52.232;7.560;2023-05-24T08:25:41;17.00;51.40
56729;DHT22;42612;52.232;7.560;2023-05-24T08:28:07;17.10;51.30
56729;DHT22;42612;52.232;7.560;2023-05-24T08:30:34;17.10;51.00
56729;DHT22;42612;52.232;7.560;2023-05-24T08:33:01;17.10;50.90
56729;DHT22;42612;52.232;7.560;2023-05-24T08:35:27;17.00;50.80
56729;DHT22;42612;52.232;7.560;2023-05-24T08:37:53;17.00;50.90
56729;DHT22;42612;52.232;7.560;2023-05-24T08:40:19;17.00;50.80
56729;DHT22;42612;52.232;7.560;2023-05-24T08:42:45;17.00;50.80
56729;DHT22;42612;52.232;7.560;2023-05-24T08:45:12;17.00;51.00
56729;DHT22;42612;52.232;7.560;2023-05-24T08:47:39;17.10;50.90
56729;DHT22;42612;52.232;7.560;2023-05-24T08:50:06;17.10;51.00
56729;DHT22;42612;52.232;7.560;2023-05-24T08:52:33;17.10;51.00
56729;DHT22;42612;52.232;7.560;2023-05-24T08:54:59;17.10;50.80
56729;DHT22;42612;52.232;7.560;2023-05-24T08:57:26;17.10;50.80
56729;DHT22;42612;52.232;7.560;2023-05-24T08:59:52;17.10;50.70
56729;DHT22;42612;52.232;7.560;2023-05-24T09:02:22;17.20;50.70
56729;DHT22;42612;52.232;7.560;2023-05-24T09:04:51;17.10;50.80
56729;DHT22;42612;52.232;7.560;2023-05-24T09:07:18;17.20;50.80
56729;DHT22;42612;52.232;7.560;2023-05-24T09:09:55;17.30;50.70
56729;DHT22;42612;52.232;7.560;2023-05-24T09:12:23;17.40;50.70
56729;DHT22;42612;52.232;7.560;2023-05-24T09:14:51;17.40;51.00
56729;DHT22;42612;52.232;7.560;2023-05-24T09:17:18;17.50;50.70
56729;DHT22;42612;52.232;7.560;2023-05-24T09:19:45;17.60;50.60
56729;DHT22;42612;52.232;7.560;2023-05-24T09:22:12;17.70;50.40
56729;DHT22;42612;52.232;7.560;2023-05-24T09:24:42;17.70;50.30
56729;DHT22;42612;52.232;7.560;2023-05-24T09:27:16;17.80;50.00
56729;DHT22;42612;52.232;7.560;2023-05-24T09:29:43;17.80;49.70
56729;DHT22;42612;52.232;7.560;2023-05-24T09:32:18;17.90;49.60
56729;DHT22;42612;52.232;7.560;2023-05-24T09:34:47;17.90;49.20
56729;DHT22;42612;52.232;7.560;2023-05-24T09:37:15;17.90;49.10
56729;DHT22;42612;52.232;7.560;2023-05-24T09:39:46;17.90;49.00
56729;DHT22;42612;52.232;7.560;2023-05-24T09:42:19;17.90;48.80
56729;DHT22;42612;52.232;7.560;2023-05-24T09:45:02;17.90;48.80
56729;DHT22;42612;52.232;7.560;2023-05-24T09:47:33;17.80;48.10
56729;DHT22;42612;52.232;7.560;2023-05-24T09:50:01;17.80;48.60
56729;DHT22;42612;52.232;7.560;2023-05-24T09:52:28;17.80;48.70
56729;DHT22;42612;52.232;7.560;2023-05-24T09:54:54;17.80;48.80
56729;DHT22;42612;52.232;7.560;2023-05-24T09:57:20;17.80;48.60
56729;DHT22;42612;52.232;7.560;2023-05-24T10:00:09;17.80;48.50
56729;DHT22;42612;52.232;7.560;2023-05-24T10:02:42;17.90;48.30
56729;DHT22;42612;52.232;7.560;2023-05-24T10:05:09;17.90;48.60
56729;DHT22;42612;52.232;7.560;2023-05-24T10:07:36;17.90;48.80
56729;DHT22;42612;52.232;7.560;2023-05-24T10:10:04;18.00;48.80
56729;DHT22;42612;52.232;7.560;2023-05-24T10:12:32;18.00;49.00
56729;DHT22;42612;52.232;7.560;2023-05-24T10:14:59;18.00;48.50
56729;DHT22;42612;52.232;7.560;2023-05-24T10:17:25;18.10;48.00
56729;DHT22;42612;52.232;7.560;2023-05-24T10:19:54;18.10;48.00
56729;DHT22;42612;52.232;7.560;2023-05-24T10:22:20;18.10;48.10
56729;DHT22;42612;52.232;7.560;2023-05-24T10:24:52;18.20;48.00
56729;DHT22;42612;52.232;7.560;2023-05-24T10:27:25;18.20;48.00
56729;DHT22;42612;52.232;7.560;2023-05-24T10:30:03;18.30;47.90
56729;DHT22;42612;52.232;7.560;2023-05-24T10:32:39;18.30;47.60
56729;DHT22;42612;52.232;7.560;2023-05-24T10:35:07;18.30;48.00
56729;DHT22;42612;52.232;7.560;2023-05-24T10:37:39;18.40;47.70
56729;DHT22;42612;52.232;7.560;2023-05-24T10:40:07;18.40;47.40
56729;DHT22;42612;52.232;7.560;2023-05-24T10:42:43;18.40;47.50
56729;DHT22;42612;52.232;7.560;2023-05-24T10:45:36;18.40;47.30
56729;DHT22;42612;52.232;7.560;2023-05-24T10:50:38;18.30;47.00
56729;DHT22;42612;52.232;7.560;2023-05-24T10:53:18;18.30;47.60
56729;DHT22;42612;52.232;7.560;2023-05-24T10:55:57;18.20;47.30
56729;DHT22;42612;52.232;7.560;2023-05-24T10:58:57;18.20;47.50
56729;DHT22;42612;52.232;7.560;2023-05-24T11:01:30;18.20;47.60
56729;DHT22;42612;52.232;7.560;2023-05-24T11:04:16;18.20;48.20
56729;DHT22;42612;52.232;7.560;2023-05-24T11:06:55;18.30;47.70
56729;DHT22;42612;52.232;7.560;2023-05-24T11:09:34;18.30;48.30
56729;DHT22;42612;52.232;7.560;2023-05-24T11:12:14;18.40;48.30
56729;DHT22;42612;52.232;7.560;2023-05-24T11:14:47;18.50;47.80
56729;DHT22;42612;52.232;7.560;2023-05-24T11:17:14;18.50;47.60
56729;DHT22;42612;52.232;7.560;2023-05-24T11:19:50;18.60;47.60
56729;DHT22;42612;52.232;7.560;2023-05-24T11:22:22;18.70;47.00
56729;DHT22;42612;52.232;7.560;2023-05-24T11:24:50;18.70;47.00
56729;DHT22;42612;52.232;7.560;2023-05-24T11:27:17;18.80;46.80
56729;DHT22;42612;52.232;7.560;2023-05-24T11:29:44;18.80;47.00
56729;DHT22;42612;52.232;7.560;2023-05-24T11:32:16;18.80;46.90
56729;DHT22;42612;52.232;7.560;2023-05-24T11:34:43;18.80;46.50
56729;DHT22;42612;52.232;7.560;2023-05-24T11:37:11;18.80;46.90
56729;DHT22;42612;52.232;7.560;2023-05-24T11:39:37;18.80;46.70
56729;DHT22;42612;52.232;7.560;2023-05-24T11:42:04;18.80;46.50
56729;DHT22;42612;52.232;7.560;2023-05-24T11:44:31;18.80;46.40
56729;DHT22;42612;52.232;7.560;2023-05-24T11:47:01;18.80;46.50
56729;DHT22;42612;52.232;7.560;2023-05-24T11:49:28;18.80;46.50
56729;DHT22;42612;52.232;7.560;2023-05-24T11:51:55;18.80;46.70
56729;DHT22;42612;52.232;7.560;2023-05-24T11:54:33;18.80;47.00
56729;DHT22;42612;52.232;7.560;2023-05-24T11:56:59;18.70;47.00
56729;DHT22;42612;52.232;7.560;2023-05-24T11:59:28;18.70;46.90
56729;DHT22;42612;52.232;7.560;2023-05-24T12:02:04;18.70;46.60
56729;DHT22;42612;52.232;7.560;2023-05-24T12:04:31;18.70;46.50
56729;DHT22;42612;52.232;7.560;2023-05-24T12:06:59;18.70;46.80
56729;DHT22;42612;52.232;7.560;2023-05-24T12:09:26;18.70;47.10
56729;DHT22;42612;52.232;7.560;2023-05-24T12:11:52;18.70;47.30
56729;DHT22;42612;52.232;7.560;2023-05-24T12:14:21;18.70;47.40
56729;DHT22;42612;52.232;7.560;2023-05-24T12:16:53;18.80;47.60
56729;DHT22;42612;52.232;7.560;2023-05-24T12:19:30;18.80;47.10
56729;DHT22;42612;52.232;7.560;2023-05-24T12:21:59;18.80;46.80
56729;DHT22;42612;52.232;7.560;2023-05-24T12:24:26;18.90;47.40
56729;DHT22;42612;52.232;7.560;2023-05-24T12:26:58;18.90;47.50
56729;DHT22;42612;52.232;7.560;2023-05-24T12:29:26;18.90;47.30
56729;DHT22;42612;52.232;7.560;2023-05-24T12:31:52;18.90;47.40
56729;DHT22;42612;52.232;7.560;2023-05-24T12:34:18;18.90;47.30
56729;DHT22;42612;52.232;7.560;2023-05-24T12:36:46;18.90;47.50
56729;DHT22;42612;52.232;7.560;2023-05-24T12:39:20;19.00;47.60
56729;DHT22;42612;52.232;7.560;2023-05-24T12:41:56;19.00;47.40
56729;DHT22;42612;52.232;7.560;2023-05-24T12:44:42;19.10;47.50
56729;DHT22;42612;52.232;7.560;2023-05-24T12:47:09;19.10;47.70
56729;DHT22;42612;52.232;7.560;2023-05-24T12:49:35;19.10;47.70
56729;DHT22;42612;52.232;7.560;2023-05-24T12:52:01;19.20;47.70
56729;DHT22;42612;52.232;7.560;2023-05-24T12:54:27;19.30;47.60
56729;DHT22;42612;52.232;7.560;2023-05-24T12:56:54;19.30;47.30
56729;DHT22;42612;52.232;7.560;2023-05-24T12:59:21;19.40;46.90
56729;DHT22;42612;52.232;7.560;2023-05-24T13:01:46;19.40;46.90
56729;DHT22;42612;52.232;7.560;2023-05-24T13:04:16;19.40;47.10
56729;DHT22;42612;52.232;7.560;2023-05-24T13:06:43;19.50;47.20
56729;DHT22;42612;52.232;7.560;2023-05-24T13:09:08;19.60;47.50
56729;DHT22;42612;52.232;7.560;2023-05-24T13:11:35;19.60;47.10
56729;DHT22;42612;52.232;7.560;2023-05-24T13:14:04;19.70;47.00
56729;DHT22;42612;52.232;7.560;2023-05-24T13:16:29;19.80;46.90
56729;DHT22;42612;52.232;7.560;2023-05-24T13:18:55;19.90;46.80
56729;DHT22;42612;52.232;7.560;2023-05-24T13:21:21;19.90;46.70
56729;DHT22;42612;52.232;7.560;2023-05-24T13:23:47;20.00;46.40
56729;DHT22;42612;52.232;7.560;2023-05-24T13:26:12;20.10;46.20
56729;DHT22;42612;52.232;7.560;2023-05-24T13:28:38;20.10;46.30
56729;DHT22;42612;52.232;7.560;2023-05-24T13:31:04;20.10;46.40
56729;DHT22;42612;52.232;7.560;2023-05-24T13:33:31;20.20;46.50
56729;DHT22;42612;52.232;7.560;2023-05-24T13:35:57;20.20;46.80
56729;DHT22;42612;52.232;7.560;2023-05-24T13:38:22;20.30;46.70
56729;DHT22;42612;52.232;7.560;2023-05-24T13:40:48;20.40;46.50
56729;DHT22;42612;52.232;7.560;2023-05-24T13:43:14;20.50;46.50
56729;DHT22;42612;52.232;7.560;2023-05-24T13:45:40;20.60;46.30
56729;DHT22;42612;52.232;7.560;2023-05-24T13:48:06;20.60;45.90
56729;DHT22;42612;52.232;7.560;2023-05-24T13:50:33;20.60;45.70
56729;DHT22;42612;52.232;7.560;2023-05-24T13:52:59;20.70;45.60
56729;DHT22;42612;52.232;7.560;2023-05-24T13:55:27;20.70;45.40
56729;DHT22;42612;52.232;7.560;2023-05-24T13:57:54;20.70;45.20
56729;DHT22;42612;52.232;7.560;2023-05-24T14:00:22;20.70;45.30
56729;DHT22;42612;52.232;7.560;2023-05-24T14:02:49;20.70;45.20
56729;DHT22;42612;52.232;7.560;2023-05-24T14:05:16;20.70;45.30
56729;DHT22;42612;52.232;7.560;2023-05-24T14:07:42;20.70;45.30
56729;DHT22;42612;52.232;7.560;2023-05-24T14:10:08;20.70;45.10
56729;DHT22;42612;52.232;7.560;2023-05-24T14:12:34;20.70;44.80
56729;DHT22;42612;52.232;7.560;2023-05-24T14:15:00;20.70;44.70
56729;DHT22;42612;52.232;7.560;2023-05-24T14:17:26;20.70;44.80
56729;DHT22;42612;52.232;7.560;2023-05-24T14:19:52;20.60;44.90
56729;DHT22;42612;52.232;7.560;2023-05-24T14:22:18;20.60;44.50
56729;DHT22;42612;52.232;7.560;2023-05-24T14:24:43;20.50;44.40
56729;DHT22;42612;52.232;7.560;2023-05-24T14:27:09;20.40;44.50
56729;DHT22;42612;52.232;7.560;2023-05-24T14:29:35;20.40;44.70
56729;DHT22;42612;52.232;7.560;2023-05-24T14:32:01;20.30;44.60
56729;DHT22;42612;52.232;7.560;2023-05-24T14:34:26;20.30;44.40
56729;DHT22;42612;52.232;7.560;2023-05-24T14:36:53;20.30;44.60
56729;DHT22;42612;52.232;7.560;2023-05-24T14:39:18;20.20;44.50
56729;DHT22;42612;52.232;7.560;2023-05-24T14:41:44;20.20;44.50
56729;DHT22;42612;52.232;7.560;2023-05-24T14:44:10;20.20;44.80
56729;DHT22;42612;52.232;7.560;2023-05-24T14:46:36;20.30;44.60
56729;DHT22;42612;52.232;7.560;2023-05-24T14:49:02;20.30;44.70
56729;DHT22;42612;52.232;7.560;2023-05-24T14:51:28;20.20;44.80
56729;DHT22;42612;52.232;7.560;2023-05-24T14:53:53;20.30;44.80
56729;DHT22;42612;52.232;7.560;2023-05-24T14:56:19;20.30;45.00
56729;DHT22;42612;52.232;7.560;2023-05-24T14:58:45;20.30;44.90
56729;DHT22;42612;52.232;7.560;2023-05-24T15:01:11;20.30;44.70
56729;DHT22;42612;52.232;7.560;2023-05-24T15:03:36;20.30;44.80
56729;DHT22;42612;52.232;7.560;2023-05-24T15:06:03;20.30;44.60
56729;DHT22;42612;52.232;7.560;2023-05-24T15:08:29;20.40;44.30
56729;DHT22;42612;52.232;7.560;2023-05-24T15:10:55;20.30;45.20
56729;DHT22;42612;52.232;7.560;2023-05-24T15:13:20;20.30;44.40
56729;DHT22;42612;52.232;7.560;2023-05-24T15:15:47;20.30;44.60
56729;DHT22;42612;52.232;7.560;2023-05-24T15:18:13;20.30;44.60
56729;DHT22;42612;52.232;7.560;2023-05-24T15:20:39;20.20;44.80
56729;DHT22;42612;52.232;7.560;2023-05-24T15:23:05;20.20;44.80
56729;DHT22;42612;52.232;7.560;2023-05-24T15:25:34;20.20;44.90
56729;DHT22;42612;52.232;7.560;2023-05-24T15:28:03;20.10;45.00
56729;DHT22;42612;52.232;7.560;2023-05-24T15:30:29;20.10;45.00
56729;DHT22;42612;52.232;7.560;2023-05-24T15:32:55;20.10;45.20
56729;DHT22;42612;52.232;7.560;2023-05-24T15:35:21;20.10;45.20
56729;DHT22;42612;52.232;7.560;2023-05-24T15:37:47;20.10;45.30
56729;DHT22;42612;52.232;7.560;2023-05-24T15:40:12;20.20;45.10
56729;DHT22;42612;52.232;7.560;2023-05-24T15:42:39;20.20;45.10